地図

経路データ

SID SEASON NUMBER BASIN SUBBASIN NAME ISO_TIME NATURE LAT LON WMO_WIND WMO_PRES WMO_AGENCY TRACK_TYPE DIST2LAND LANDFALL IFLAG USA_AGENCY USA_ATCF_ID USA_LAT USA_LON USA_RECORD USA_STATUS USA_WIND USA_PRES USA_SSHS USA_R34_NE USA_R34_SE USA_R34_SW USA_R34_NW USA_R50_NE USA_R50_SE USA_R50_SW USA_R50_NW USA_R64_NE USA_R64_SE USA_R64_SW USA_R64_NW USA_POCI USA_ROCI USA_RMW USA_EYE TOKYO_LAT TOKYO_LON TOKYO_GRADE TOKYO_WIND TOKYO_PRES TOKYO_R50_DIR TOKYO_R50_LONG TOKYO_R50_SHORT TOKYO_R30_DIR TOKYO_R30_LONG TOKYO_R30_SHORT TOKYO_LAND CMA_LAT CMA_LON CMA_CAT CMA_WIND CMA_PRES HKO_LAT HKO_LON HKO_CAT HKO_WIND HKO_PRES NEWDELHI_LAT NEWDELHI_LON NEWDELHI_GRADE NEWDELHI_WIND NEWDELHI_PRES NEWDELHI_CI NEWDELHI_DP NEWDELHI_POCI REUNION_LAT REUNION_LON REUNION_TYPE REUNION_WIND REUNION_PRES REUNION_TNUM REUNION_CI REUNION_RMW REUNION_R34_NE REUNION_R34_SE REUNION_R34_SW REUNION_R34_NW REUNION_R50_NE REUNION_R50_SE REUNION_R50_SW REUNION_R50_NW REUNION_R64_NE REUNION_R64_SE REUNION_R64_SW REUNION_R64_NW BOM_LAT BOM_LON BOM_TYPE BOM_WIND BOM_PRES BOM_TNUM BOM_CI BOM_RMW BOM_R34_NE BOM_R34_SE BOM_R34_SW BOM_R34_NW BOM_R50_NE BOM_R50_SE BOM_R50_SW BOM_R50_NW BOM_R64_NE BOM_R64_SE BOM_R64_SW BOM_R64_NW BOM_ROCI BOM_POCI BOM_EYE BOM_POS_METHOD BOM_PRES_METHOD NADI_LAT NADI_LON NADI_CAT NADI_WIND NADI_PRES WELLINGTON_LAT WELLINGTON_LON WELLINGTON_WIND WELLINGTON_PRES DS824_LAT DS824_LON DS824_STAGE DS824_WIND DS824_PRES TD9636_LAT TD9636_LON TD9636_STAGE TD9636_WIND TD9636_PRES TD9635_LAT TD9635_LON TD9635_WIND TD9635_PRES TD9635_ROCI NEUMANN_LAT NEUMANN_LON NEUMANN_CLASS NEUMANN_WIND NEUMANN_PRES MLC_LAT MLC_LON MLC_CLASS MLC_WIND MLC_PRES USA_GUST BOM_GUST BOM_GUST_PER REUNION_GUST REUNION_GUST_PER USA_SEAHGT USA_SEARAD_NE USA_SEARAD_SE USA_SEARAD_SW USA_SEARAD_NW STORM_SPEED STORM_DIR
1951244N13328 1951 65 NA NA EASY 1951-09-01 06:00:00 TS 12.5000 -32.0000 30 hurdat_atl main 1586 1586 O_____________ hurdat_atl AL061951 12.5000 -32.0000 TD 30 -1 14 298
1951244N13328 1951 65 NA NA EASY 1951-09-01 09:00:00 TS 12.8353 -32.6548 main 1655 1654 P_____________ AL061951 12.8353 -32.6548 TD 30 -1 15 299
1951244N13328 1951 65 NA NA EASY 1951-09-01 12:00:00 TS 13.2000 -33.3000 30 hurdat_atl main 1713 1713 O_____________ hurdat_atl AL061951 13.2000 -33.3000 TD 30 -1 15 302
1951244N13328 1951 65 NA NA EASY 1951-09-01 15:00:00 TS 13.6074 -33.9225 main 1773 1773 P_____________ AL061951 13.6074 -33.9225 TD 32 -1 14 304
1951244N13328 1951 65 NA NA EASY 1951-09-01 18:00:00 TS 14.0000 -34.5000 35 hurdat_atl main 1833 1833 O_____________ hurdat_atl AL061951 14.0000 -34.5000 TS 35 0 13 305
1951244N13328 1951 65 NA NA EASY 1951-09-01 21:00:00 TS 14.3448 -35.0226 main 1884 1884 P_____________ AL061951 14.3448 -35.0226 TS 35 0 11 302
1951244N13328 1951 65 NA NA EASY 1951-09-02 00:00:00 TS 14.6000 -35.5000 35 hurdat_atl main 1936 1936 O_____________ hurdat_atl AL061951 14.6000 -35.5000 TS 35 0 10 293
1951244N13328 1951 65 NA NA EASY 1951-09-02 03:00:00 TS 14.7298 -35.9503 main 1990 1990 P_____________ AL061951 14.7298 -35.9503 TS 37 0 9 283
1951244N13328 1951 65 NA NA EASY 1951-09-02 06:00:00 TS 14.8000 -36.4000 40 hurdat_atl main 2012 1983 O_____________ hurdat_atl AL061951 14.8000 -36.4000 TS 40 0 9 280
1951244N13328 1951 65 NA NA EASY 1951-09-02 09:00:00 TS 14.8923 -36.8776 main 1974 1937 P_____________ AL061951 14.8923 -36.8776 TS 40 0 10 282
1951244N13328 1951 65 NA NA EASY 1951-09-02 12:00:00 TS 15.0000 -37.4000 40 hurdat_atl main 1937 1901 O_____________ hurdat_atl AL061951 15.0000 -37.4000 TS 40 0 11 283
1951244N13328 1951 65 NA NA EASY 1951-09-02 15:00:00 TS 15.1347 -37.9552 main 1893 1857 P_____________ AL061951 15.1347 -37.9552 TS 40 0 12 285
1951244N13328 1951 65 NA NA EASY 1951-09-02 18:00:00 TS 15.3000 -38.6000 40 hurdat_atl main 1857 1816 O_____________ hurdat_atl AL061951 15.3000 -38.6000 TS 40 0 14 285
1951244N13328 1951 65 NA NA EASY 1951-09-02 21:00:00 TS 15.4925 -39.3700 main 1808 1761 P_____________ AL061951 15.4925 -39.3700 TS 42 0 16 285
1951244N13328 1951 65 NA NA EASY 1951-09-03 00:00:00 TS 15.7000 -40.2000 45 hurdat_atl main 1761 1719 O_____________ hurdat_atl AL061951 15.7000 -40.2000 TS 45 0 16 285
1951244N13328 1951 65 NA NA EASY 1951-09-03 03:00:00 TS 15.9073 -41.0075 main 1719 1680 P_____________ AL061951 15.9073 -41.0075 TS 50 0 16 285
1951244N13328 1951 65 NA NA EASY 1951-09-03 06:00:00 TS 16.1000 -41.8000 55 hurdat_atl main 1680 1643 O_____________ hurdat_atl AL061951 16.1000 -41.8000 TS 55 0 16 283
1951244N13328 1951 65 NA NA EASY 1951-09-03 09:00:00 TS 16.2649 -42.5801 main 1646 1612 P_____________ AL061951 16.2649 -42.5801 TS 60 0 15 282
1951244N13328 1951 65 NA NA EASY 1951-09-03 12:00:00 TS 16.4000 -43.3000 65 hurdat_atl main 1612 1581 O_____________ hurdat_atl AL061951 16.4000 -43.3000 HU 65 1 13 281
1951244N13328 1951 65 NA NA EASY 1951-09-03 15:00:00 TS 16.5146 -43.9226 main 1581 1552 P_____________ AL061951 16.5146 -43.9226 HU 67 1 12 280
1951244N13328 1951 65 NA NA EASY 1951-09-03 18:00:00 TS 16.6000 -44.5000 70 hurdat_atl main 1552 1516 O_____________ hurdat_atl AL061951 16.6000 -44.5000 HU 70 1 11 277
1951244N13328 1951 65 NA NA EASY 1951-09-03 21:00:00 TS 16.6498 -45.1002 main 1516 1491 P_____________ AL061951 16.6498 -45.1002 HU 72 1 12 275
1951244N13328 1951 65 NA NA EASY 1951-09-04 00:00:00 TS 16.7000 -45.7000 75 hurdat_atl main 1491 1469 O_____________ hurdat_atl AL061951 16.7000 -45.7000 HU 75 1 12 277
1951244N13328 1951 65 NA NA EASY 1951-09-04 03:00:00 TS 16.7848 -46.2926 main 1469 1449 P_____________ AL061951 16.7848 -46.2926 HU 77 1 12 280
1951244N13328 1951 65 NA NA EASY 1951-09-04 06:00:00 TS 16.9000 -46.9000 80 hurdat_atl main 1449 1431 O_____________ hurdat_atl AL061951 16.9000 -46.9000 HU 80 1 12 281
1951244N13328 1951 65 NA NA EASY 1951-09-04 09:00:00 TS 17.0197 -47.5278 main 1431 1421 P_____________ AL061951 17.0197 -47.5278 HU 82 1 13 284
1951244N13328 1951 65 NA NA EASY 1951-09-04 12:00:00 TS 17.2000 -48.2000 85 hurdat_atl main 1423 1410 O_____________ hurdat_atl AL061951 17.2000 -48.2000 HU 85 2 14 288
1951244N13328 1951 65 NA NA EASY 1951-09-04 15:00:00 TS 17.4548 -48.9278 main 1421 1410 P_____________ AL061951 17.4548 -48.9278 HU 87 2 16 293
1951244N13328 1951 65 NA NA EASY 1951-09-04 18:00:00 TS 17.8000 -49.7000 90 hurdat_atl main 1419 1410 O_____________ hurdat_atl AL061951 17.8000 -49.7000 HU 90 2 17 297
1951244N13328 1951 65 NA NA EASY 1951-09-04 21:00:00 TS 18.2198 -50.4927 main 1407 1374 P_____________ AL061951 18.2198 -50.4927 HU 92 2 18 301
1951244N13328 1951 65 NA NA EASY 1951-09-05 00:00:00 TS 18.7000 -51.3000 95 hurdat_atl main 1374 1348 O_____________ hurdat_atl AL061951 18.7000 -51.3000 HU 95 2 18 303
1951244N13328 1951 65 NA NA EASY 1951-09-05 03:00:00 TS 19.1997 -52.1077 main 1348 1328 P_____________ AL061951 19.1997 -52.1077 HU 95 2 18 303
1951244N13328 1951 65 NA NA EASY 1951-09-05 06:00:00 TS 19.7000 -52.9000 95 hurdat_atl main 1330 1273 O_____________ hurdat_atl AL061951 19.7000 -52.9000 HU 95 2 18 304
1951244N13328 1951 65 NA NA EASY 1951-09-05 09:00:00 TS 20.1796 -53.6578 main 1264 1199 P_____________ AL061951 20.1796 -53.6578 HU 92 2 17 303
1951244N13328 1951 65 NA NA EASY 1951-09-05 12:00:00 TS 20.6000 -54.4000 90 hurdat_atl main 1199 1134 O_____________ hurdat_atl AL061951 20.6000 -54.4000 HU 90 2 16 299
1951244N13328 1951 65 NA NA EASY 1951-09-05 15:00:00 TS 20.9447 -55.1503 main 1124 1061 P_____________ AL061951 20.9447 -55.1503 HU 90 2 15 293
1951244N13328 1951 65 NA NA EASY 1951-09-05 18:00:00 TS 21.2000 -55.9000 90 hurdat_atl main 1061 995 O_____________ hurdat_atl AL061951 21.2000 -55.9000 HU 90 2 14 287
1951244N13328 1951 65 NA NA EASY 1951-09-05 21:00:00 TS 21.3645 -56.6357 main 998 924 P_____________ AL061951 21.3645 -56.6357 HU 87 2 14 282
1951244N13328 1951 65 NA NA EASY 1951-09-06 00:00:00 TS 21.5000 -57.4000 85 hurdat_atl main 924 856 O_____________ hurdat_atl AL061951 21.5000 -57.4000 HU 85 2 15 282
1951244N13328 1951 65 NA NA EASY 1951-09-06 03:00:00 TS 21.6925 -58.2500 main 856 783 P_____________ AL061951 21.6925 -58.2500 HU 85 2 16 284
1951244N13328 1951 65 NA NA EASY 1951-09-06 06:00:00 TS 21.9000 -59.1000 85 hurdat_atl main 783 732 O_____________ hurdat_atl AL061951 21.9000 -59.1000 HU 85 2 16 285
1951244N13328 1951 65 NA NA EASY 1951-09-06 09:00:00 TS 22.1071 -59.8801 main 724 679 P_____________ AL061951 22.1071 -59.8801 HU 87 2 14 286
1951244N13328 1951 65 NA NA EASY 1951-09-06 12:00:00 TS 22.3000 -60.6000 90 967 hurdat_atl main 679 640 O_____________ hurdat_atl AL061951 22.3000 -60.6000 HU 90 967 2 13 285
1951244N13328 1951 65 NA NA EASY 1951-09-06 15:00:00 TS 22.4495 -61.2654 main 633 607 P_____________ AL061951 22.4495 -61.2654 HU 95 962 2 12 284
1951244N13328 1951 65 NA NA EASY 1951-09-06 18:00:00 TS 22.6000 -61.9000 100 957 hurdat_atl main 607 584 O_____________ hurdat_atl AL061951 22.6000 -61.9000 HU 100 957 3 12 286
1951244N13328 1951 65 NA NA EASY 1951-09-06 21:00:00 TS 22.7771 -62.5429 main 588 566 P_____________ AL061951 22.7771 -62.5429 HU 105 3 13 288
1951244N13328 1951 65 NA NA EASY 1951-09-07 00:00:00 TS 23.0000 -63.2000 110 hurdat_atl main 571 565 O_____________ hurdat_atl AL061951 23.0000 -63.2000 HU 110 3 13 291
1951244N13328 1951 65 NA NA EASY 1951-09-07 03:00:00 TS 23.2623 -63.8929 main 575 569 P_____________ AL061951 23.2623 -63.8929 HU 112 3 14 295
1951244N13328 1951 65 NA NA EASY 1951-09-07 06:00:00 TS 23.6000 -64.6000 115 hurdat_atl main 590 588 O_____________ hurdat_atl AL061951 23.6000 -64.6000 HU 115 4 15 300
1951244N13328 1951 65 NA NA EASY 1951-09-07 09:00:00 TS 24.0276 -65.3372 main 626 626 P_____________ AL061951 24.0276 -65.3372 HU 117 4 16 305
1951244N13328 1951 65 NA NA EASY 1951-09-07 12:00:00 TS 24.5000 -66.0000 120 hurdat_atl main 673 673 O_____________ hurdat_atl AL061951 24.5000 -66.0000 HU 120 4 14 311
1951244N13328 1951 65 NA NA EASY 1951-09-07 15:00:00 TS 24.9571 -66.5104 main 699 695 P_____________ AL061951 24.9571 -66.5104 HU 122 4 12 318
1951244N13328 1951 65 NA NA EASY 1951-09-07 18:00:00 TS 25.4000 -66.9000 125 937 hurdat_atl main 722 722 O_____________ hurdat_atl AL061951 25.4000 -66.9000 HU 125 937 4 11 321
1951244N13328 1951 65 NA NA EASY 1951-09-07 21:00:00 TS 25.7999 -67.2601 main 746 746 P_____________ AL061951 25.7999 -67.2601 HU 127 4 10 326
1951244N13328 1951 65 NA NA EASY 1951-09-08 00:00:00 TS 26.2000 -67.5000 130 hurdat_atl main 780 780 O_____________ hurdat_atl AL061951 26.2000 -67.5000 HU 130 4 9 340
1951244N13328 1951 65 NA NA EASY 1951-09-08 03:00:00 TS 26.6499 -67.6102 main 815 815 P_____________ AL061951 26.6499 -67.6102 HU 130 4 9 355
1951244N13328 1951 65 NA NA EASY 1951-09-08 06:00:00 TS 27.1000 -67.6000 130 hurdat_atl main 856 856 O_____________ hurdat_atl AL061951 27.1000 -67.6000 HU 130 4 9 4
1951244N13328 1951 65 NA NA EASY 1951-09-08 09:00:00 TS 27.5150 -67.5301 main 897 897 P_____________ AL061951 27.5150 -67.5301 HU 127 4 8 13
1951244N13328 1951 65 NA NA EASY 1951-09-08 12:00:00 TS 27.9000 -67.4000 125 hurdat_atl main 938 938 O_____________ hurdat_atl AL061951 27.9000 -67.4000 HU 125 4 8 16
1951244N13328 1951 65 NA NA EASY 1951-09-08 15:00:00 TS 28.2499 -67.2871 main 970 970 P_____________ AL061951 28.2499 -67.2871 HU 122 4 8 21
1951244N13328 1951 65 NA NA EASY 1951-09-08 18:00:00 TS 28.6000 -67.1000 120 hurdat_atl main 1018 1018 O_____________ hurdat_atl AL061951 28.6000 -67.1000 HU 120 4 9 29
1951244N13328 1951 65 NA NA EASY 1951-09-08 21:00:00 TS 29.0150 -66.7952 main 1071 1071 P_____________ AL061951 29.0150 -66.7952 HU 115 4 10 37
1951244N13328 1951 65 NA NA EASY 1951-09-09 00:00:00 TS 29.4000 -66.4000 110 hurdat_atl main 1109 1109 O_____________ hurdat_atl AL061951 29.4000 -66.4000 HU 110 3 10 47
1951244N13328 1951 65 NA NA EASY 1951-09-09 03:00:00 TS 29.6647 -65.9868 main 1116 1116 P_____________ AL061951 29.6647 -65.9868 HU 105 3 9 57
1951244N13328 1951 65 NA NA EASY 1951-09-09 06:00:00 TS 29.9000 -65.5000 100 hurdat_atl main 1140 1140 O_____________ hurdat_atl AL061951 29.9000 -65.5000 HU 100 3 10 61
1951244N13328 1951 65 NA NA EASY 1951-09-09 09:00:00 TS 30.1544 -64.9586 main 1158 1158 P_____________ AL061951 30.1544 -64.9586 HU 97 3 12 60
1951244N13328 1951 65 NA NA EASY 1951-09-09 12:00:00 TS 30.5000 -64.3000 95 hurdat_atl main 1195 1195 O_____________ hurdat_atl AL061951 30.5000 -64.3000 HU 95 2 15 57
1951244N13328 1951 65 NA NA EASY 1951-09-09 15:00:00 TS 30.9904 -63.4726 main 1232 1232 P_____________ AL061951 30.9904 -63.4726 HU 92 2 18 53
1951244N13328 1951 65 NA NA EASY 1951-09-09 18:00:00 TS 31.6000 -62.6000 90 hurdat_atl main 1278 1267 O_____________ hurdat_atl AL061951 31.6000 -62.6000 HU 90 2 19 47
1951244N13328 1951 65 NA NA EASY 1951-09-09 21:00:00 TS 32.2919 -61.8272 main 1272 1224 P_____________ AL061951 32.2919 -61.8272 HU 87 2 19 42
1951244N13328 1951 65 NA NA EASY 1951-09-10 00:00:00 TS 33.0000 -61.1000 85 hurdat_atl main 1224 1180 O_____________ hurdat_atl AL061951 33.0000 -61.1000 HU 85 2 18 42
1951244N13328 1951 65 NA NA EASY 1951-09-10 03:00:00 TS 33.6142 -60.4057 main 1180 1142 P_____________ AL061951 33.6142 -60.4057 HU 85 2 17 44
1951244N13328 1951 65 NA NA EASY 1951-09-10 06:00:00 TS 34.2000 -59.7000 85 hurdat_atl main 1142 1113 O_____________ hurdat_atl AL061951 34.2000 -59.7000 HU 85 2 17 47
1951244N13328 1951 65 NA NA EASY 1951-09-10 09:00:00 TS 34.7925 -58.8993 main 1113 1091 P_____________ AL061951 34.7925 -58.8993 HU 85 2 18 48
1951244N13328 1951 65 NA NA EASY 1951-09-10 12:00:00 TS 35.4000 -58.1000 85 hurdat_atl main 1091 1069 O_____________ hurdat_atl AL061951 35.4000 -58.1000 HU 85 2 18 45
1951244N13328 1951 65 NA NA EASY 1951-09-10 15:00:00 TS 36.0496 -57.3693 main 1069 1014 P_____________ AL061951 36.0496 -57.3693 HU 82 1 17 41
1951244N13328 1951 65 NA NA EASY 1951-09-10 18:00:00 TS 36.7000 -56.7000 80 hurdat_atl main 1014 972 O_____________ hurdat_atl AL061951 36.7000 -56.7000 HU 80 1 16 39
1951244N13328 1951 65 NA NA EASY 1951-09-10 21:00:00 TS 37.3142 -56.0984 main 972 934 P_____________ AL061951 37.3142 -56.0984 HU 80 1 15 39
1951244N13328 1951 65 NA NA EASY 1951-09-11 00:00:00 TS 37.9000 -55.5000 80 hurdat_atl main 934 903 O_____________ hurdat_atl AL061951 37.9000 -55.5000 HU 80 1 16 40
1951244N13328 1951 65 NA NA EASY 1951-09-11 03:00:00 TS 38.5022 -54.8228 main 906 846 P_____________ AL061951 38.5022 -54.8228 HU 77 1 16 45
1951244N13328 1951 65 NA NA EASY 1951-09-11 06:00:00 TS 39.0000 -54.1000 75 hurdat_atl main 846 811 O_____________ hurdat_atl AL061951 39.0000 -54.1000 HU 75 1 14 54
1951244N13328 1951 65 NA NA EASY 1951-09-11 09:00:00 TS 39.3323 -53.3494 main 811 789 P_____________ AL061951 39.3323 -53.3494 HU 72 1 13 67
1951244N13328 1951 65 NA NA EASY 1951-09-11 12:00:00 TS 39.5000 -52.6000 70 hurdat_atl main 790 790 O_____________ hurdat_atl AL061951 39.5000 -52.6000 HU 70 1 11 80
1951244N13328 1951 65 NA NA EASY 1951-09-11 15:00:00 TS 39.5371 -51.8838 main 796 796 P_____________ AL061951 39.5371 -51.8838 HU 70 1 11 90
1951244N13328 1951 65 NA NA EASY 1951-09-11 18:00:00 ET 39.5000 -51.2000 70 hurdat_atl main 805 805 O_____________ hurdat_atl AL061951 39.5000 -51.2000 EX 70 -4 10 92
1951244N13328 1951 65 NA NA EASY 1951-09-11 21:00:00 ET 39.4995 -50.5425 main 819 819 P_____________ AL061951 39.4995 -50.5425 EX 67 -4 10 90
1951244N13328 1951 65 NA NA EASY 1951-09-12 00:00:00 ET 39.5000 -49.9000 65 hurdat_atl main 833 833 O_____________ hurdat_atl AL061951 39.5000 -49.9000 EX 65 -4 10 90
1951244N13328 1951 65 NA NA EASY 1951-09-12 03:00:00 ET 39.4992 -49.2725 main 849 849 P_____________ AL061951 39.4992 -49.2725 EX 65 -4 10 90
1951244N13328 1951 65 NA NA EASY 1951-09-12 06:00:00 ET 39.5000 -48.6000 65 hurdat_atl main 872 872 O_____________ hurdat_atl AL061951 39.5000 -48.6000 EX 65 -4 11 90
1951244N13328 1951 65 NA NA EASY 1951-09-12 09:00:00 ET 39.5000 -47.8150 main 901 901 P_____________ AL061951 39.5000 -47.8150 EX 62 -4 12 90
1951244N13328 1951 65 NA NA EASY 1951-09-12 12:00:00 ET 39.5000 -47.0000 60 hurdat_atl main 934 934 O_____________ hurdat_atl AL061951 39.5000 -47.0000 EX 60 -4 12 91
1951244N13328 1951 65 NA NA EASY 1951-09-12 15:00:00 ET 39.4844 -46.2420 main 970 970 P_____________ AL061951 39.4844 -46.2420 EX 60 -4 12 90
1951244N13328 1951 65 NA NA EASY 1951-09-12 18:00:00 ET 39.5000 -45.5000 60 hurdat_atl main 1004 1004 O_____________ hurdat_atl AL061951 39.5000 -45.5000 EX 60 -4 11 88
1951244N13328 1951 65 NA NA EASY 1951-09-12 21:00:00 ET 39.5228 -44.8219 main 1040 1040 P_____________ AL061951 39.5228 -44.8219 EX 60 -4 12 80
1951244N13328 1951 65 NA NA EASY 1951-09-13 00:00:00 ET 39.7000 -44.0000 60 hurdat_atl main 1067 1067 O_____________ hurdat_atl AL061951 39.7000 -44.0000 EX 60 -4 17 69
1951244N13328 1951 65 NA NA EASY 1951-09-13 03:00:00 ET 40.1265 -42.8042 main 1104 1103 P_____________ AL061951 40.1265 -42.8042 EX 60 -4 22 62
1951244N13328 1951 65 NA NA EASY 1951-09-13 06:00:00 ET 40.7000 -41.5000 60 hurdat_atl main 1141 1140 O_____________ hurdat_atl AL061951 40.7000 -41.5000 EX 60 -4 22 58
1951244N13328 1951 65 NA NA EASY 1951-09-13 09:00:00 ET 41.2756 -40.3826 main 1172 1172 P_____________ AL061951 41.2756 -40.3826 EX 60 -4 20 54
1951244N13328 1951 65 NA NA EASY 1951-09-13 12:00:00 ET 41.9000 -39.3000 60 hurdat_atl main 1211 1211 O_____________ hurdat_atl AL061951 41.9000 -39.3000 EX 60 -4 20 50
1951244N13328 1951 65 NA NA EASY 1951-09-13 15:00:00 ET 42.5565 -38.3389 main 1241 1241 P_____________ AL061951 42.5565 -38.3389 EX 60 -4 21 53
1951244N13328 1951 65 NA NA EASY 1951-09-13 18:00:00 ET 43.2000 -37.0000 60 hurdat_atl main 1301 1301 O_____________ hurdat_atl AL061951 43.2000 -37.0000 EX 60 -4 29 66
1951244N13328 1951 65 NA NA EASY 1951-09-13 21:00:00 ET 43.7300 -34.7420 main 1446 1446 P_____________ AL061951 43.7300 -34.7420 EX 60 -4 36 74
1951244N13328 1951 65 NA NA EASY 1951-09-14 00:00:00 ET 44.2000 -32.2000 60 hurdat_atl main 1610 1610 O_____________ hurdat_atl AL061951 44.2000 -32.2000 EX 60 -4 34 74
1951244N13328 1951 65 NA NA EASY 1951-09-14 03:00:00 ET 44.6803 -30.1438 main 1644 1485 P_____________ AL061951 44.6803 -30.1438 EX 62 -4 31 71
1951244N13328 1951 65 NA NA EASY 1951-09-14 06:00:00 ET 45.2000 -28.0000 65 hurdat_atl main 1478 1289 O_____________ hurdat_atl AL061951 45.2000 -28.0000 EX 65 -4 35 73
1951244N13328 1951 65 NA NA EASY 1951-09-14 09:00:00 ET 45.7357 -25.3367 main 1277 1078 P_____________ AL061951 45.7357 -25.3367 EX 65 -4 40 74
1951244N13328 1951 65 NA NA EASY 1951-09-14 12:00:00 ET 46.3000 -22.5000 65 hurdat_atl main 1067 872 O_____________ hurdat_atl AL061951 46.3000 -22.5000 EX 65 -4 40 73
1951244N13328 1951 65 NA NA EASY 1951-09-14 15:00:00 ET 46.9006 -19.7697 main 866 677 P_____________ AL061951 46.9006 -19.7697 EX 62 -4 39 72
1951244N13328 1951 65 NA NA EASY 1951-09-14 18:00:00 ET 47.5000 -17.1000 60 hurdat_atl main 672 O_____________ hurdat_atl AL061951 47.5000 -17.1000 EX 60 -4 38 72

IBTrACS Databaseについて

本データベースは、米国NOAAが公開する1842年以降の世界の熱帯低気圧のベストトラックデータアーカイブInternational Best Track Archive for Climate Stewardship (IBTrACS)を、ウェブで閲覧しやすい形式に変換したものです。

最終更新日:2021-10-08